Terminal Aerodrome Forecast
Issued by NWS Grand Forks, ND

Home | Current Version | Previous Version | Text Only | Print | Product List | Glossary Off
Versions: 1 2 3 4 5 6 7 8 9 10 11 12 13 14 15 16 17

889
FTUS43 KFGF 212056 AAA
TAFFAR
TAF AMD
KFAR 212056Z 2121/2218 01005KT P6SM OVC015
     FM221100 01008KT P6SM BKN015 OVC020=

USA.gov is the U.S. government's official web portal to all federal, state and local government web resources and services.